CYBD

Bella Coola Airport

Bella Coola, , Canada
METAR CYBD 140100Z VRB02KT 3SM -RA BR FEW004 SCT022 OVC030 02/02 A2974 RMK SF2SC2NS4 VIS VRB 2-4, LAST STFD OBS/NEXT 141500 UTC SLP073
Observed Flight Rules
Dec-14 @ 01:00 UTC (8 hours ago) Marginal Visual Flight Rules
Wind Visibility Clouds Conditions
Variable at 2 knots 3 miles
  • Few at 400' AGL
  • Scattered at 2,200' AGL
  • Overcast at 3,000' AGL
  • Light Rain
  • Mist
Temperatures Readings
Current 2°C / 36°F
Dewpoint 2°C / 36°F
Humidity 100%
Altimeter 29.74" Hg
Pressure 1007.3 hPa
Elevation 35
METAR CYBD 140100Z VRB02KT 3SM -RA BR FEW004 SCT022 OVC030 02/02 A2974 RMK SF2SC2NS4 VIS VRB 2-4, LAST STFD OBS/NEXT 141500 UTC SLP073
Observed Flight Rules
Dec-14 @ 01:00 UTC
(8 hours ago)
MVFR
Wind Visibility
Variable at 2 knots 3 miles
Clouds
  • Few at 400' AGL
  • Scattered at 2,200' AGL
  • Overcast at 3,000' AGL
Conditions
  • Light Rain
  • Mist
Temperature Dewpoint
2°C / 36°F 2°C / 36°F
Humidity Altimeter Pressure
100% 29.74" Hg 1007.3 hPa